createdAt,value
2018-12-11T00:01:50.467Z,11.73
2018-12-11T00:04:25.275Z,10.47
2018-12-11T00:07:03.902Z,10.30
2018-12-11T00:09:44.491Z,11.53
2018-12-11T00:12:24.497Z,11.57
2018-12-11T00:15:06.811Z,11.77
2018-12-11T00:17:47.985Z,10.90
2018-12-11T00:20:27.444Z,11.10
2018-12-11T00:23:09.476Z,11.10
2018-12-11T00:25:44.113Z,11.40
2018-12-11T00:28:19.262Z,11.13
2018-12-11T00:30:57.761Z,11.67
2018-12-11T00:33:42.303Z,11.47
2018-12-11T00:36:20.346Z,11.43
2018-12-11T00:42:03.083Z,12.40
2018-12-11T00:44:41.583Z,11.27
2018-12-11T00:47:23.952Z,11.13
2018-12-11T00:50:02.336Z,10.93
2018-12-11T00:52:39.858Z,10.83
2018-12-11T00:55:14.342Z,11.10
2018-12-11T00:58:07.699Z,11.30
2018-12-11T01:01:00.411Z,11.10
2018-12-11T01:06:35.627Z,10.40
2018-12-11T01:09:12.234Z,10.67
2018-12-11T01:20:44.088Z,10.03
2018-12-11T01:23:22.626Z,10.00
2018-12-11T01:25:57.410Z,10.17
2018-12-11T01:28:44.421Z,9.97
2018-12-11T01:31:24.846Z,9.90
2018-12-11T01:34:05.237Z,10.07
2018-12-11T01:36:39.958Z,10.30
2018-12-11T01:39:33.612Z,10.13
2018-12-11T01:42:19.986Z,10.40
2018-12-11T01:48:12.250Z,10.37
2018-12-11T01:50:47.367Z,10.13
2018-12-11T01:59:21.874Z,10.13
2018-12-11T02:01:56.408Z,10.37
2018-12-11T02:04:32.525Z,9.93
2018-12-11T02:07:06.970Z,10.07
2018-12-11T02:12:38.509Z,10.03
2018-12-11T02:15:16.591Z,9.90
2018-12-11T02:21:03.577Z,9.83
2018-12-11T02:23:56.304Z,9.87
2018-12-11T02:26:30.753Z,9.03
2018-12-11T02:29:05.502Z,10.10
2018-12-11T02:31:40.162Z,8.53
2018-12-11T02:34:15.675Z,9.37
2018-12-11T02:36:51.033Z,9.20
2018-12-11T02:39:26.103Z,8.20
2018-12-11T02:42:01.797Z,8.87
2018-12-11T02:44:36.419Z,9.00
2018-12-11T02:47:11.182Z,8.63
2018-12-11T02:49:46.034Z,8.77
2018-12-11T02:52:20.635Z,8.67
2018-12-11T02:54:55.643Z,7.97
2018-12-11T02:57:29.946Z,8.20
2018-12-11T03:00:07.759Z,8.10
2018-12-11T03:02:42.239Z,7.97
2018-12-11T03:05:16.938Z,8.10
2018-12-11T03:07:51.592Z,8.07
2018-12-11T03:10:26.241Z,7.80
2018-12-11T03:13:00.986Z,7.70
2018-12-11T03:15:35.727Z,8.17
2018-12-11T03:18:10.585Z,8.00
2018-12-11T03:20:44.886Z,8.00
2018-12-11T03:23:19.693Z,8.40
2018-12-11T03:25:54.525Z,8.23
2018-12-11T03:28:29.744Z,8.53
2018-12-11T03:31:04.739Z,7.93
2018-12-11T03:33:40.282Z,8.47
2018-12-11T03:36:14.773Z,8.00
2018-12-11T03:38:49.686Z,7.40
2018-12-11T03:41:24.886Z,7.63
2018-12-11T03:43:59.387Z,7.90
2018-12-11T03:46:35.054Z,8.17
2018-12-11T03:49:09.669Z,7.90
2018-12-11T03:51:44.522Z,7.50
2018-12-11T03:54:19.210Z,7.73
2018-12-11T03:56:53.816Z,7.73
2018-12-11T03:59:29.413Z,7.60
2018-12-11T04:02:05.718Z,7.80
2018-12-11T04:04:40.641Z,7.67
2018-12-11T04:07:15.678Z,8.10
2018-12-11T04:09:50.429Z,7.63
2018-12-11T04:12:25.274Z,7.67
2018-12-11T04:15:00.103Z,7.50
2018-12-11T04:17:34.672Z,7.53
2018-12-11T04:20:10.234Z,7.67
2018-12-11T04:22:45.023Z,7.20
2018-12-11T04:25:19.918Z,7.10
2018-12-11T04:27:54.482Z,7.03
2018-12-11T04:30:29.094Z,7.37
2018-12-11T04:33:03.640Z,7.33
2018-12-11T04:35:37.926Z,7.53
2018-12-11T04:38:12.466Z,7.40
2018-12-11T04:40:47.296Z,7.70
2018-12-11T04:43:22.674Z,7.33
2018-12-11T04:45:57.636Z,7.40
2018-12-11T04:48:32.023Z,7.40
2018-12-11T04:51:06.503Z,7.30
2018-12-11T04:53:41.216Z,7.30
2018-12-11T04:56:15.499Z,7.47
2018-12-11T04:58:50.267Z,7.47
2018-12-11T05:01:25.046Z,7.27
2018-12-11T05:03:59.883Z,7.33
2018-12-11T05:06:35.124Z,7.37
2018-12-11T05:09:09.870Z,7.40
2018-12-11T05:11:46.720Z,7.57
2018-12-11T05:14:21.359Z,7.57
2018-12-11T05:16:56.155Z,7.60
2018-12-11T05:19:30.555Z,7.47
2018-12-11T05:22:07.398Z,7.57
2018-12-11T05:24:41.994Z,8.03
2018-12-11T05:27:16.750Z,8.03
2018-12-11T05:29:51.545Z,8.10
2018-12-11T05:32:26.823Z,8.43
2018-12-11T05:35:02.010Z,10.47
2018-12-11T05:37:37.234Z,8.63
2018-12-11T05:40:11.748Z,8.40
2018-12-11T05:42:47.226Z,8.17
2018-12-11T05:45:21.850Z,9.00
2018-12-11T05:54:02.647Z,8.50
2018-12-11T05:56:37.888Z,8.73
2018-12-11T05:59:17.931Z,7.87
2018-12-11T06:01:52.677Z,7.60
2018-12-11T06:04:45.696Z,7.90
2018-12-11T06:07:38.306Z,8.10
2018-12-11T06:10:13.214Z,8.03
2018-12-11T06:13:04.197Z,8.00
2018-12-11T06:15:38.936Z,8.03
2018-12-11T06:18:19.298Z,8.03
2018-12-11T06:20:59.557Z,9.20
2018-12-11T06:23:46.398Z,8.50
2018-12-11T06:26:21.270Z,8.33
2018-12-11T06:32:14.290Z,7.70
2018-12-11T06:34:49.410Z,8.27
2018-12-11T06:37:23.733Z,7.60
2018-12-11T06:40:03.984Z,7.60
2018-12-11T06:42:39.110Z,8.30
2018-12-11T06:45:13.850Z,8.30
2018-12-11T06:47:48.642Z,7.40
2018-12-11T06:50:22.924Z,7.77
2018-12-11T06:52:57.619Z,11.37
2018-12-11T06:55:32.062Z,7.93
2018-12-11T06:58:10.201Z,8.40
2018-12-11T07:00:45.245Z,9.53
2018-12-11T07:03:20.211Z,8.27
2018-12-11T07:05:54.927Z,8.60
2018-12-11T07:08:41.235Z,7.50
2018-12-11T07:11:16.004Z,8.40
2018-12-11T07:13:50.823Z,8.30
2018-12-11T07:16:25.420Z,8.20
2018-12-11T07:19:00.361Z,8.17
2018-12-11T07:21:34.796Z,8.67
2018-12-11T07:24:16.762Z,8.80
2018-12-11T07:26:51.271Z,8.80
2018-12-11T07:29:26.257Z,9.63
2018-12-11T07:35:00.277Z,9.30
2018-12-11T07:37:35.196Z,9.27
2018-12-11T07:40:15.474Z,8.93
2018-12-11T07:45:46.398Z,9.00
2018-12-11T07:51:35.826Z,8.97
2018-12-11T07:54:22.360Z,8.57
2018-12-11T07:56:56.850Z,8.00
2018-12-11T07:59:37.514Z,7.83
2018-12-11T08:11:16.965Z,8.23
2018-12-11T08:14:04.179Z,8.43
2018-12-11T08:16:42.034Z,8.03
2018-12-11T08:19:36.861Z,8.80
2018-12-11T08:25:08.803Z,8.47
2018-12-11T08:30:39.546Z,8.43
2018-12-11T08:33:20.250Z,9.10
2018-12-11T08:35:54.942Z,8.43
2018-12-11T08:44:29.019Z,8.30
2018-12-11T08:47:09.779Z,8.27
2018-12-11T08:52:24.874Z,8.30
2018-12-11T08:54:59.418Z,8.33
2018-12-11T08:57:34.974Z,8.60
2018-12-11T09:00:15.789Z,8.40
2018-12-11T09:02:56.100Z,8.00
2018-12-11T09:05:30.852Z,7.90
2018-12-11T09:08:09.366Z,7.73
2018-12-11T09:11:01.799Z,7.77
2018-12-11T09:13:39.946Z,8.30
2018-12-11T09:19:14.613Z,8.70
2018-12-11T09:21:53.321Z,8.87
2018-12-11T09:24:28.897Z,8.37
2018-12-11T09:27:06.726Z,8.27
2018-12-11T09:29:44.695Z,8.60
2018-12-11T09:32:25.783Z,8.20
2018-12-11T09:35:04.148Z,7.50
2018-12-11T09:37:41.315Z,8.30
2018-12-11T09:40:24.533Z,8.00
2018-12-11T09:43:00.967Z,7.60
2018-12-11T09:45:52.595Z,7.70
2018-12-11T09:48:41.855Z,8.27
2018-12-11T09:51:32.538Z,8.33
2018-12-11T09:57:10.303Z,8.07
2018-12-11T09:59:48.103Z,8.43
2018-12-11T10:02:26.036Z,7.90
2018-12-11T10:11:02.237Z,8.20
2018-12-11T10:13:42.577Z,8.30
2018-12-11T10:16:22.894Z,7.70
2018-12-11T10:19:04.148Z,8.00
2018-12-11T10:21:42.548Z,8.13
2018-12-11T10:24:33.895Z,7.90
2018-12-11T10:27:08.614Z,7.63
2018-12-11T10:29:43.088Z,7.37
2018-12-11T10:32:26.300Z,7.37
2018-12-11T10:35:09.642Z,7.43
2018-12-11T10:37:56.887Z,7.27
2018-12-11T10:40:44.727Z,7.60
2018-12-11T10:43:26.150Z,8.67
2018-12-11T10:46:06.088Z,8.83
2018-12-11T10:48:45.559Z,8.20
2018-12-11T10:51:23.672Z,8.07
2018-12-11T10:54:00.559Z,7.70
2018-12-11T10:56:38.212Z,8.33
2018-12-11T10:59:15.718Z,8.00
2018-12-11T11:01:52.254Z,7.70
2018-12-11T11:04:35.168Z,8.00
2018-12-11T11:07:15.602Z,7.17
2018-12-11T11:09:53.959Z,8.17
2018-12-11T11:12:32.871Z,7.73
2018-12-11T11:15:13.706Z,8.50
2018-12-11T11:17:55.342Z,7.70
2018-12-11T11:20:33.587Z,7.63
2018-12-11T11:23:20.804Z,7.50
2018-12-11T11:25:59.525Z,7.67
2018-12-11T11:28:47.856Z,8.43
2018-12-11T11:31:30.237Z,8.03
2018-12-11T11:34:11.261Z,7.67
2018-12-11T11:36:53.153Z,7.40
2018-12-11T11:42:31.661Z,8.00
2018-12-11T11:54:00.561Z,7.97
2018-12-11T11:56:38.544Z,8.27
2018-12-11T11:59:13.146Z,8.50
2018-12-11T12:01:53.888Z,8.70
2018-12-11T12:04:34.941Z,9.53
2018-12-11T12:07:17.520Z,9.50
2018-12-11T12:09:58.963Z,9.10
2018-12-11T12:12:52.024Z,9.47
2018-12-11T12:15:49.613Z,9.07
2018-12-11T12:18:24.243Z,9.03
2018-12-11T12:20:58.577Z,8.90
2018-12-11T12:23:36.505Z,8.47
2018-12-11T12:26:11.161Z,8.63
2018-12-11T12:28:51.403Z,9.10
2018-12-11T12:31:26.735Z,8.00
2018-12-11T12:34:07.798Z,8.67
2018-12-11T12:36:47.450Z,8.30
2018-12-11T12:39:36.564Z,8.63
2018-12-11T12:45:10.766Z,8.57
2018-12-11T12:47:45.435Z,12.33
2018-12-11T12:50:20.269Z,8.50
2018-12-11T12:52:54.643Z,8.93
2018-12-11T12:55:29.530Z,8.10
2018-12-11T12:58:04.473Z,14.23
2018-12-11T13:00:39.576Z,16.20
2018-12-11T13:03:14.310Z,14.00
2018-12-11T13:05:50.862Z,8.17
2018-12-11T13:08:25.830Z,8.90
2018-12-11T13:11:00.428Z,9.40
2018-12-11T13:16:32.241Z,10.17
2018-12-11T13:19:07.250Z,10.03
2018-12-11T13:21:42.126Z,10.00
2018-12-11T13:24:16.651Z,10.00
2018-12-11T13:26:51.462Z,9.70
2018-12-11T13:29:26.063Z,9.73
2018-12-11T13:32:00.509Z,15.50
2018-12-11T13:34:34.862Z,10.77
2018-12-11T13:37:10.089Z,9.30
2018-12-11T13:39:44.650Z,9.43
2018-12-11T13:42:27.358Z,9.23
2018-12-11T13:45:01.986Z,8.73
2018-12-11T13:47:37.788Z,8.97
2018-12-11T13:50:13.973Z,8.30
2018-12-11T13:52:54.026Z,8.50
2018-12-11T13:55:34.895Z,8.37
2018-12-11T13:58:15.212Z,8.50
2018-12-11T14:01:02.782Z,8.20
2018-12-11T14:03:37.362Z,8.00
2018-12-11T14:06:19.278Z,8.83
2018-12-11T14:08:55.864Z,8.40
2018-12-11T14:11:30.595Z,8.17
2018-12-11T14:14:08.623Z,8.40
2018-12-11T14:16:58.463Z,9.07
2018-12-11T14:19:43.474Z,9.67
2018-12-11T14:22:21.210Z,10.17
2018-12-11T14:27:48.839Z,8.97
2018-12-11T14:30:24.027Z,11.23
2018-12-11T14:32:58.569Z,10.40
2018-12-11T14:35:33.842Z,10.20
2018-12-11T14:38:09.397Z,9.07
2018-12-11T14:40:45.006Z,9.50
2018-12-11T14:43:19.331Z,9.50
2018-12-11T14:45:53.942Z,9.90
2018-12-11T14:48:28.533Z,10.37
2018-12-11T14:51:03.562Z,11.37
2018-12-11T14:53:39.098Z,10.73
2018-12-11T14:56:19.339Z,14.47
2018-12-11T14:58:54.095Z,10.83
2018-12-11T15:01:29.142Z,9.03
2018-12-11T15:04:04.655Z,10.13
2018-12-11T15:06:42.842Z,10.00
2018-12-11T15:09:22.576Z,16.87
2018-12-11T15:11:57.016Z,10.13
2018-12-11T15:14:35.262Z,8.83
2018-12-11T15:17:14.246Z,9.37
2018-12-11T15:19:52.231Z,9.17
2018-12-11T15:22:31.778Z,9.93
2018-12-11T15:25:12.078Z,10.43
2018-12-11T15:27:46.960Z,8.97
2018-12-11T15:30:29.891Z,9.40
2018-12-11T15:38:59.482Z,8.80
2018-12-11T15:41:34.485Z,9.37
2018-12-11T15:44:23.359Z,10.00
2018-12-11T15:47:01.446Z,9.03
2018-12-11T15:49:36.202Z,9.67
2018-12-11T15:52:14.383Z,11.13
2018-12-11T15:54:59.001Z,10.00
2018-12-11T15:57:37.483Z,9.33
2018-12-11T16:03:26.875Z,8.83
2018-12-11T16:06:07.287Z,10.37
2018-12-11T16:08:42.228Z,9.43
2018-12-11T16:11:22.949Z,9.77
2018-12-11T16:14:04.010Z,9.17
2018-12-11T16:19:47.627Z,10.10
2018-12-11T16:22:31.822Z,10.20
2018-12-11T16:25:07.282Z,10.73
2018-12-11T16:27:59.890Z,10.50
2018-12-11T16:33:47.863Z,11.30
2018-12-11T16:36:22.922Z,10.30
2018-12-11T16:38:57.609Z,10.37
2018-12-11T16:41:48.658Z,10.70
2018-12-11T16:47:10.524Z,10.83
2018-12-11T16:49:45.742Z,11.50
2018-12-11T16:52:39.439Z,11.00
2018-12-11T16:55:20.195Z,10.40
2018-12-11T16:57:59.516Z,10.93
2018-12-11T17:00:34.371Z,11.43
2018-12-11T17:03:18.816Z,12.27
2018-12-11T17:06:00.562Z,11.13
2018-12-11T17:08:40.351Z,12.93
2018-12-11T17:11:15.219Z,11.37
2018-12-11T17:13:51.155Z,13.80
2018-12-11T17:16:29.689Z,12.43
2018-12-11T17:19:04.585Z,11.83
2018-12-11T17:21:39.531Z,11.20
2018-12-11T17:24:15.416Z,12.43
2018-12-11T17:26:53.367Z,12.00
2018-12-11T17:29:29.151Z,11.63
2018-12-11T17:32:09.830Z,11.57
2018-12-11T17:34:52.055Z,11.33
2018-12-11T17:37:37.280Z,11.53
2018-12-11T17:40:18.303Z,10.60
2018-12-11T17:42:54.850Z,12.57
2018-12-11T17:45:31.694Z,12.43
2018-12-11T17:51:08.882Z,11.37
2018-12-11T17:53:50.740Z,11.70
2018-12-11T17:56:25.631Z,12.23
2018-12-11T18:05:10.118Z,12.47
2018-12-11T18:07:44.930Z,12.23
2018-12-11T18:10:24.197Z,11.27
2018-12-11T18:13:21.415Z,11.00
2018-12-11T18:16:02.706Z,11.20
2018-12-11T18:18:40.728Z,11.60
2018-12-11T18:21:38.616Z,11.00
2018-12-11T18:24:26.758Z,11.63
2018-12-11T18:27:06.263Z,11.30
2018-12-11T18:29:42.697Z,12.00
2018-12-11T18:32:26.435Z,12.53
2018-12-11T18:35:01.854Z,12.00
2018-12-11T18:37:40.245Z,12.60
2018-12-11T18:40:21.062Z,11.93
2018-12-11T18:42:57.673Z,12.10
2018-12-11T18:45:44.515Z,11.40
2018-12-11T18:48:19.605Z,12.33
2018-12-11T18:50:54.189Z,11.20
2018-12-11T18:53:32.079Z,11.97
2018-12-11T18:56:12.618Z,12.30
2018-12-11T18:59:00.908Z,12.20
2018-12-11T19:01:52.686Z,12.60
2018-12-11T19:04:39.247Z,12.10
2018-12-11T19:07:15.450Z,11.80
2018-12-11T19:09:55.072Z,12.87
2018-12-11T19:12:33.737Z,11.80
2018-12-11T19:15:13.934Z,11.10
2018-12-11T19:17:48.443Z,11.07
2018-12-11T19:20:23.469Z,11.93
2018-12-11T19:23:09.069Z,11.40
2018-12-11T19:25:49.322Z,11.00
2018-12-11T19:28:27.731Z,10.63
2018-12-11T19:31:16.694Z,11.87
2018-12-11T19:33:51.202Z,12.03
2018-12-11T19:36:26.332Z,11.73
2018-12-11T19:39:01.386Z,11.17
2018-12-11T19:41:36.344Z,12.93
2018-12-11T19:44:12.576Z,12.13
2018-12-11T19:46:53.405Z,11.60
2018-12-11T19:52:39.611Z,11.37
2018-12-11T19:58:09.419Z,11.77
2018-12-11T20:00:44.611Z,11.80
2018-12-11T20:06:24.498Z,11.27
2018-12-11T20:08:59.662Z,11.60
2018-12-11T20:11:34.569Z,11.60
2018-12-11T20:14:13.094Z,11.87
2018-12-11T20:16:59.713Z,11.83
2018-12-11T20:19:39.613Z,11.67
2018-12-11T20:22:23.481Z,11.63
2018-12-11T20:28:01.759Z,11.10
2018-12-11T20:30:54.577Z,11.13
2018-12-11T20:33:30.526Z,11.20
2018-12-11T20:36:12.510Z,10.83
2018-12-11T20:41:53.507Z,11.67
2018-12-11T20:44:38.404Z,11.47
2018-12-11T20:47:25.927Z,10.50
2018-12-11T20:55:31.146Z,12.00
2018-12-11T20:58:11.323Z,11.10
2018-12-11T21:00:49.000Z,10.73
2018-12-11T21:03:27.195Z,11.63
2018-12-11T21:06:06.047Z,10.40
2018-12-11T21:08:41.970Z,10.60
2018-12-11T21:11:16.978Z,10.43
2018-12-11T21:14:04.433Z,13.97
2018-12-11T21:16:39.046Z,10.93
2018-12-11T21:19:17.088Z,11.03
2018-12-11T21:21:51.547Z,10.37
2018-12-11T21:24:33.015Z,11.10
2018-12-11T21:27:23.639Z,10.10
2018-12-11T21:29:58.397Z,10.57
2018-12-11T21:35:37.435Z,10.70
2018-12-11T21:38:22.847Z,11.03
2018-12-11T21:41:03.703Z,13.37
2018-12-11T21:43:46.471Z,11.50
2018-12-11T21:46:21.534Z,10.73
2018-12-11T21:49:04.407Z,10.00
2018-12-11T21:51:42.607Z,11.20
2018-12-11T21:57:20.341Z,10.77
2018-12-11T21:59:59.438Z,10.90
2018-12-11T22:02:34.031Z,10.10
2018-12-11T22:05:21.639Z,9.70
2018-12-11T22:08:01.647Z,9.80
2018-12-11T22:10:41.979Z,9.97
2018-12-11T22:13:20.884Z,11.03
2018-12-11T22:15:59.385Z,9.93
2018-12-11T22:18:37.817Z,9.73
2018-12-11T22:21:18.362Z,10.50
2018-12-11T22:23:56.105Z,10.67
2018-12-11T22:26:36.910Z,10.10
2018-12-11T22:29:23.603Z,9.97
2018-12-11T22:32:04.932Z,10.63
2018-12-11T22:34:53.456Z,10.23
2018-12-11T22:37:32.008Z,10.37
2018-12-11T22:40:08.186Z,10.60
2018-12-11T22:42:50.710Z,11.23
2018-12-11T22:45:32.548Z,11.13
2018-12-11T22:48:09.190Z,10.10
2018-12-11T22:50:50.164Z,10.80
2018-12-11T22:53:27.691Z,10.57
2018-12-11T22:56:08.420Z,10.90
2018-12-11T22:58:46.265Z,11.07
2018-12-11T23:01:26.207Z,10.50
2018-12-11T23:04:04.806Z,11.30
2018-12-11T23:06:39.431Z,11.43
2018-12-11T23:09:14.634Z,11.30
2018-12-11T23:11:52.710Z,10.77
2018-12-11T23:14:33.206Z,11.30
2018-12-11T23:17:11.247Z,10.10
2018-12-11T23:20:02.252Z,10.73
2018-12-11T23:22:38.866Z,10.17
2018-12-11T23:25:21.790Z,10.93
2018-12-11T23:27:59.679Z,10.80
2018-12-11T23:30:35.946Z,11.17
2018-12-11T23:33:16.810Z,10.80
2018-12-11T23:35:56.161Z,10.57
2018-12-11T23:38:31.083Z,10.90
2018-12-11T23:41:09.045Z,10.97
2018-12-11T23:43:47.194Z,11.43
2018-12-11T23:46:22.467Z,11.07
2018-12-11T23:48:59.990Z,10.93
2018-12-11T23:51:36.267Z,10.90
2018-12-11T23:54:23.416Z,10.77
2018-12-11T23:56:59.663Z,11.10
2018-12-11T23:59:34.391Z,10.83
